sensor_id;sensor_type;location;lat;lon;timestamp;P1;durP1;ratioP1;P2;durP2;ratioP2
13218;SDS011;6674;49.152;11.918;2023-12-20T00:00:34;5.00;;;4.60;;
13218;SDS011;6674;49.152;11.918;2023-12-20T00:03:04;4.77;;;4.27;;
13218;SDS011;6674;49.152;11.918;2023-12-20T00:05:30;4.80;;;4.30;;
13218;SDS011;6674;49.152;11.918;2023-12-20T00:07:57;5.17;;;4.67;;
13218;SDS011;6674;49.152;11.918;2023-12-20T00:10:23;5.47;;;4.97;;
13218;SDS011;6674;49.152;11.918;2023-12-20T00:12:50;5.37;;;4.87;;
13218;SDS011;6674;49.152;11.918;2023-12-20T00:15:15;5.10;;;4.63;;
13218;SDS011;6674;49.152;11.918;2023-12-20T00:17:43;6.03;;;5.43;;
13218;SDS011;6674;49.152;11.918;2023-12-20T00:20:11;5.37;;;4.87;;
13218;SDS011;6674;49.152;11.918;2023-12-20T00:22:37;4.90;;;4.50;;
13218;SDS011;6674;49.152;11.918;2023-12-20T00:25:04;5.30;;;4.80;;
13218;SDS011;6674;49.152;11.918;2023-12-20T00:27:30;4.63;;;4.23;;
13218;SDS011;6674;49.152;11.918;2023-12-20T00:29:58;5.13;;;4.63;;
13218;SDS011;6674;49.152;11.918;2023-12-20T00:32:25;5.17;;;4.67;;
13218;SDS011;6674;49.152;11.918;2023-12-20T00:34:51;4.60;;;4.20;;
13218;SDS011;6674;49.152;11.918;2023-12-20T00:37:19;4.67;;;4.20;;
13218;SDS011;6674;49.152;11.918;2023-12-20T00:39:45;5.03;;;4.57;;
13218;SDS011;6674;49.152;11.918;2023-12-20T00:42:13;4.93;;;4.43;;
13218;SDS011;6674;49.152;11.918;2023-12-20T00:44:39;5.40;;;4.90;;
13218;SDS011;6674;49.152;11.918;2023-12-20T00:47:06;5.20;;;4.40;;
13218;SDS011;6674;49.152;11.918;2023-12-20T00:49:32;4.80;;;4.30;;
13218;SDS011;6674;49.152;11.918;2023-12-20T00:51:59;5.30;;;4.50;;
13218;SDS011;6674;49.152;11.918;2023-12-20T00:54:27;5.17;;;4.70;;
13218;SDS011;6674;49.152;11.918;2023-12-20T00:56:55;5.30;;;4.73;;
13218;SDS011;6674;49.152;11.918;2023-12-20T00:59:27;5.60;;;4.80;;
13218;SDS011;6674;49.152;11.918;2023-12-20T01:01:56;5.10;;;4.70;;
13218;SDS011;6674;49.152;11.918;2023-12-20T01:04:22;5.57;;;4.77;;
13218;SDS011;6674;49.152;11.918;2023-12-20T01:06:49;5.60;;;5.10;;
13218;SDS011;6674;49.152;11.918;2023-12-20T01:09:15;5.33;;;4.77;;
13218;SDS011;6674;49.152;11.918;2023-12-20T01:11:43;5.83;;;5.10;;
13218;SDS011;6674;49.152;11.918;2023-12-20T01:14:09;5.83;;;5.33;;
13218;SDS011;6674;49.152;11.918;2023-12-20T01:16:35;5.53;;;5.03;;
13218;SDS011;6674;49.152;11.918;2023-12-20T01:19:02;5.80;;;5.30;;
13218;SDS011;6674;49.152;11.918;2023-12-20T01:21:28;5.43;;;4.93;;
13218;SDS011;6674;49.152;11.918;2023-12-20T01:23:55;5.83;;;5.23;;
13218;SDS011;6674;49.152;11.918;2023-12-20T01:26:21;6.00;;;5.40;;
13218;SDS011;6674;49.152;11.918;2023-12-20T01:28:49;6.43;;;5.70;;
13218;SDS011;6674;49.152;11.918;2023-12-20T01:31:15;6.37;;;5.53;;
13218;SDS011;6674;49.152;11.918;2023-12-20T01:33:42;6.40;;;5.80;;
13218;SDS011;6674;49.152;11.918;2023-12-20T01:36:08;6.63;;;6.00;;
13218;SDS011;6674;49.152;11.918;2023-12-20T01:38:37;7.27;;;6.13;;
13218;SDS011;6674;49.152;11.918;2023-12-20T01:41:03;8.00;;;7.20;;
13218;SDS011;6674;49.152;11.918;2023-12-20T01:43:31;7.10;;;6.40;;
13218;SDS011;6674;49.152;11.918;2023-12-20T01:45:59;7.73;;;6.90;;
13218;SDS011;6674;49.152;11.918;2023-12-20T01:48:27;7.73;;;6.93;;
13218;SDS011;6674;49.152;11.918;2023-12-20T01:50:54;8.33;;;7.47;;
13218;SDS011;6674;49.152;11.918;2023-12-20T01:53:21;10.60;;;8.20;;
13218;SDS011;6674;49.152;11.918;2023-12-20T01:55:50;8.47;;;7.67;;
13218;SDS011;6674;49.152;11.918;2023-12-20T01:58:18;10.43;;;9.37;;
13218;SDS011;6674;49.152;11.918;2023-12-20T02:00:46;10.03;;;8.93;;
13218;SDS011;6674;49.152;11.918;2023-12-20T02:03:21;9.87;;;8.70;;
13218;SDS011;6674;49.152;11.918;2023-12-20T02:05:47;10.83;;;9.73;;
13218;SDS011;6674;49.152;11.918;2023-12-20T02:08:14;11.17;;;9.57;;
13218;SDS011;6674;49.152;11.918;2023-12-20T02:10:40;11.57;;;10.40;;
13218;SDS011;6674;49.152;11.918;2023-12-20T02:13:08;11.90;;;10.70;;
13218;SDS011;6674;49.152;11.918;2023-12-20T02:15:34;10.30;;;9.13;;
13218;SDS011;6674;49.152;11.918;2023-12-20T02:18:02;10.43;;;9.30;;
13218;SDS011;6674;49.152;11.918;2023-12-20T02:20:37;13.73;;;11.20;;
13218;SDS011;6674;49.152;11.918;2023-12-20T02:23:05;13.27;;;11.97;;
13218;SDS011;6674;49.152;11.918;2023-12-20T02:25:31;13.33;;;11.93;;
13218;SDS011;6674;49.152;11.918;2023-12-20T02:27:57;12.20;;;10.90;;
13218;SDS011;6674;49.152;11.918;2023-12-20T02:30:24;15.10;;;12.83;;
13218;SDS011;6674;49.152;11.918;2023-12-20T02:32:50;12.53;;;11.10;;
13218;SDS011;6674;49.152;11.918;2023-12-20T02:35:18;14.63;;;12.40;;
13218;SDS011;6674;49.152;11.918;2023-12-20T02:37:44;12.73;;;11.43;;
13218;SDS011;6674;49.152;11.918;2023-12-20T02:40:12;15.60;;;12.73;;
13218;SDS011;6674;49.152;11.918;2023-12-20T02:42:40;14.67;;;13.17;;
13218;SDS011;6674;49.152;11.918;2023-12-20T02:45:06;13.57;;;12.17;;
13218;SDS011;6674;49.152;11.918;2023-12-20T02:47:33;13.73;;;12.33;;
13218;SDS011;6674;49.152;11.918;2023-12-20T02:49:59;13.47;;;12.13;;
13218;SDS011;6674;49.152;11.918;2023-12-20T02:52:27;15.47;;;13.07;;
13218;SDS011;6674;49.152;11.918;2023-12-20T02:54:54;15.27;;;13.63;;
13218;SDS011;6674;49.152;11.918;2023-12-20T02:57:21;15.33;;;12.97;;
13218;SDS011;6674;49.152;11.918;2023-12-20T02:59:48;11.60;;;10.33;;
13218;SDS011;6674;49.152;11.918;2023-12-20T03:02:14;13.00;;;11.60;;
13218;SDS011;6674;49.152;11.918;2023-12-20T03:04:43;13.70;;;12.23;;
13218;SDS011;6674;49.152;11.918;2023-12-20T03:07:12;15.73;;;13.43;;
13218;SDS011;6674;49.152;11.918;2023-12-20T03:09:40;13.80;;;12.10;;
13218;SDS011;6674;49.152;11.918;2023-12-20T03:12:09;14.20;;;12.70;;
13218;SDS011;6674;49.152;11.918;2023-12-20T03:14:37;13.43;;;12.07;;
13218;SDS011;6674;49.152;11.918;2023-12-20T03:17:03;14.43;;;12.90;;
13218;SDS011;6674;49.152;11.918;2023-12-20T03:19:30;13.43;;;11.70;;
13218;SDS011;6674;49.152;11.918;2023-12-20T03:21:56;13.63;;;12.13;;
13218;SDS011;6674;49.152;11.918;2023-12-20T03:24:26;13.73;;;12.33;;
13218;SDS011;6674;49.152;11.918;2023-12-20T03:26:52;12.43;;;11.10;;
13218;SDS011;6674;49.152;11.918;2023-12-20T03:29:19;12.23;;;10.93;;
13218;SDS011;6674;49.152;11.918;2023-12-20T03:31:47;11.83;;;10.47;;
13218;SDS011;6674;49.152;11.918;2023-12-20T03:34:13;10.77;;;9.73;;
13218;SDS011;6674;49.152;11.918;2023-12-20T03:36:39;12.47;;;10.77;;
13218;SDS011;6674;49.152;11.918;2023-12-20T03:39:06;11.43;;;10.30;;
13218;SDS011;6674;49.152;11.918;2023-12-20T03:41:32;9.50;;;8.50;;
13218;SDS011;6674;49.152;11.918;2023-12-20T03:43:59;10.07;;;8.60;;
13218;SDS011;6674;49.152;11.918;2023-12-20T03:46:25;9.77;;;8.87;;
13218;SDS011;6674;49.152;11.918;2023-12-20T03:48:53;10.10;;;8.97;;
13218;SDS011;6674;49.152;11.918;2023-12-20T03:51:19;9.50;;;8.60;;
13218;SDS011;6674;49.152;11.918;2023-12-20T03:53:46;10.33;;;9.23;;
13218;SDS011;6674;49.152;11.918;2023-12-20T03:56:12;9.10;;;8.30;;
13218;SDS011;6674;49.152;11.918;2023-12-20T03:58:38;9.53;;;8.63;;
13218;SDS011;6674;49.152;11.918;2023-12-20T04:01:08;9.03;;;8.13;;
13218;SDS011;6674;49.152;11.918;2023-12-20T04:03:36;11.13;;;10.03;;
13218;SDS011;6674;49.152;11.918;2023-12-20T04:06:04;7.57;;;6.77;;
13218;SDS011;6674;49.152;11.918;2023-12-20T04:08:30;6.30;;;5.63;;
13218;SDS011;6674;49.152;11.918;2023-12-20T04:10:57;3.40;;;3.10;;
13218;SDS011;6674;49.152;11.918;2023-12-20T04:13:23;2.53;;;2.33;;
13218;SDS011;6674;49.152;11.918;2023-12-20T04:15:49;2.50;;;2.30;;
13218;SDS011;6674;49.152;11.918;2023-12-20T04:18:16;2.43;;;2.23;;
13218;SDS011;6674;49.152;11.918;2023-12-20T04:20:43;1.87;;;1.77;;
13218;SDS011;6674;49.152;11.918;2023-12-20T04:23:09;1.80;;;1.70;;
13218;SDS011;6674;49.152;11.918;2023-12-20T04:25:36;1.97;;;1.83;;
13218;SDS011;6674;49.152;11.918;2023-12-20T04:28:02;2.10;;;2.00;;
13218;SDS011;6674;49.152;11.918;2023-12-20T04:30:29;2.07;;;1.97;;
13218;SDS011;6674;49.152;11.918;2023-12-20T04:32:55;1.63;;;1.53;;
13218;SDS011;6674;49.152;11.918;2023-12-20T04:35:22;1.93;;;1.73;;
13218;SDS011;6674;49.152;11.918;2023-12-20T04:37:48;2.03;;;1.90;;
13218;SDS011;6674;49.152;11.918;2023-12-20T04:40:17;1.70;;;1.60;;
13218;SDS011;6674;49.152;11.918;2023-12-20T04:42:43;2.00;;;1.90;;
13218;SDS011;6674;49.152;11.918;2023-12-20T04:45:09;1.77;;;1.67;;
13218;SDS011;6674;49.152;11.918;2023-12-20T04:47:45;1.80;;;1.70;;
13218;SDS011;6674;49.152;11.918;2023-12-20T04:50:12;2.30;;;2.10;;
13218;SDS011;6674;49.152;11.918;2023-12-20T04:52:39;1.53;;;1.43;;
13218;SDS011;6674;49.152;11.918;2023-12-20T04:55:06;1.87;;;1.70;;
13218;SDS011;6674;49.152;11.918;2023-12-20T04:57:36;1.60;;;1.50;;
13218;SDS011;6674;49.152;11.918;2023-12-20T05:00:02;1.77;;;1.67;;
13218;SDS011;6674;49.152;11.918;2023-12-20T05:02:29;1.80;;;1.53;;
13218;SDS011;6674;49.152;11.918;2023-12-20T05:04:56;1.70;;;1.57;;
13218;SDS011;6674;49.152;11.918;2023-12-20T05:07:22;1.50;;;1.40;;
13218;SDS011;6674;49.152;11.918;2023-12-20T05:09:48;2.13;;;1.50;;
13218;SDS011;6674;49.152;11.918;2023-12-20T05:12:15;1.50;;;1.40;;
13218;SDS011;6674;49.152;11.918;2023-12-20T05:14:42;1.63;;;1.53;;
13218;SDS011;6674;49.152;11.918;2023-12-20T05:17:09;1.63;;;1.53;;
13218;SDS011;6674;49.152;11.918;2023-12-20T05:19:35;1.50;;;1.40;;
13218;SDS011;6674;49.152;11.918;2023-12-20T05:22:02;1.40;;;1.30;;
13218;SDS011;6674;49.152;11.918;2023-12-20T05:24:28;1.80;;;1.70;;
13218;SDS011;6674;49.152;11.918;2023-12-20T05:26:54;1.57;;;1.47;;
13218;SDS011;6674;49.152;11.918;2023-12-20T05:29:21;1.63;;;1.53;;
13218;SDS011;6674;49.152;11.918;2023-12-20T05:31:49;1.43;;;1.33;;
13218;SDS011;6674;49.152;11.918;2023-12-20T05:34:15;2.10;;;1.80;;
13218;SDS011;6674;49.152;11.918;2023-12-20T05:36:41;1.60;;;1.50;;
13218;SDS011;6674;49.152;11.918;2023-12-20T05:39:08;1.40;;;1.30;;
13218;SDS011;6674;49.152;11.918;2023-12-20T05:41:34;2.00;;;1.80;;
13218;SDS011;6674;49.152;11.918;2023-12-20T05:44:00;1.20;;;1.20;;
13218;SDS011;6674;49.152;11.918;2023-12-20T05:46:26;1.10;;;1.10;;
13218;SDS011;6674;49.152;11.918;2023-12-20T05:48:54;0.90;;;0.90;;
13218;SDS011;6674;49.152;11.918;2023-12-20T05:51:22;1.20;;;1.10;;
13218;SDS011;6674;49.152;11.918;2023-12-20T05:53:48;1.03;;;1.03;;
13218;SDS011;6674;49.152;11.918;2023-12-20T05:56:16;1.50;;;1.40;;
13218;SDS011;6674;49.152;11.918;2023-12-20T05:58:42;1.27;;;1.17;;
13218;SDS011;6674;49.152;11.918;2023-12-20T06:01:09;1.00;;;1.00;;
13218;SDS011;6674;49.152;11.918;2023-12-20T06:03:37;1.27;;;1.23;;
13218;SDS011;6674;49.152;11.918;2023-12-20T06:06:08;1.30;;;1.20;;
13218;SDS011;6674;49.152;11.918;2023-12-20T06:08:36;1.20;;;1.10;;
13218;SDS011;6674;49.152;11.918;2023-12-20T06:11:02;2.23;;;1.30;;
13218;SDS011;6674;49.152;11.918;2023-12-20T06:13:30;1.33;;;1.23;;
13218;SDS011;6674;49.152;11.918;2023-12-20T06:15:56;1.30;;;1.20;;
13218;SDS011;6674;49.152;11.918;2023-12-20T06:18:23;1.07;;;0.97;;
13218;SDS011;6674;49.152;11.918;2023-12-20T06:20:49;0.73;;;0.73;;
13218;SDS011;6674;49.152;11.918;2023-12-20T06:23:17;0.90;;;0.90;;
13218;SDS011;6674;49.152;11.918;2023-12-20T06:25:43;1.40;;;0.83;;
13218;SDS011;6674;49.152;11.918;2023-12-20T06:28:11;0.60;;;0.50;;
13218;SDS011;6674;49.152;11.918;2023-12-20T06:30:39;0.80;;;0.80;;
13218;SDS011;6674;49.152;11.918;2023-12-20T06:33:05;0.70;;;0.70;;
13218;SDS011;6674;49.152;11.918;2023-12-20T06:35:34;0.93;;;0.80;;
13218;SDS011;6674;49.152;11.918;2023-12-20T06:38:02;1.50;;;0.80;;
13218;SDS011;6674;49.152;11.918;2023-12-20T06:40:30;0.40;;;0.40;;
13218;SDS011;6674;49.152;11.918;2023-12-20T06:42:56;0.60;;;0.60;;
13218;SDS011;6674;49.152;11.918;2023-12-20T06:45:24;0.70;;;0.70;;
13218;SDS011;6674;49.152;11.918;2023-12-20T06:47:50;0.77;;;0.77;;
13218;SDS011;6674;49.152;11.918;2023-12-20T06:50:17;0.90;;;0.90;;
13218;SDS011;6674;49.152;11.918;2023-12-20T06:52:43;0.67;;;0.67;;
13218;SDS011;6674;49.152;11.918;2023-12-20T06:55:10;0.83;;;0.83;;
13218;SDS011;6674;49.152;11.918;2023-12-20T06:57:38;1.40;;;0.70;;
13218;SDS011;6674;49.152;11.918;2023-12-20T07:00:04;1.23;;;1.23;;
13218;SDS011;6674;49.152;11.918;2023-12-20T07:02:34;0.60;;;0.60;;
13218;SDS011;6674;49.152;11.918;2023-12-20T07:05:00;0.50;;;0.50;;
13218;SDS011;6674;49.152;11.918;2023-12-20T07:07:27;0.57;;;0.57;;
13218;SDS011;6674;49.152;11.918;2023-12-20T07:09:53;0.70;;;0.70;;
13218;SDS011;6674;49.152;11.918;2023-12-20T07:12:26;1.40;;;0.90;;
13218;SDS011;6674;49.152;11.918;2023-12-20T07:14:54;0.63;;;0.63;;
13218;SDS011;6674;49.152;11.918;2023-12-20T07:17:22;0.80;;;0.70;;
13218;SDS011;6674;49.152;11.918;2023-12-20T07:19:48;0.97;;;0.67;;
13218;SDS011;6674;49.152;11.918;2023-12-20T07:22:15;0.80;;;0.80;;
13218;SDS011;6674;49.152;11.918;2023-12-20T07:24:41;0.60;;;0.53;;
13218;SDS011;6674;49.152;11.918;2023-12-20T07:27:08;0.63;;;0.63;;
13218;SDS011;6674;49.152;11.918;2023-12-20T07:29:35;0.60;;;0.60;;
13218;SDS011;6674;49.152;11.918;2023-12-20T07:32:03;1.17;;;1.17;;
13218;SDS011;6674;49.152;11.918;2023-12-20T07:34:29;0.80;;;0.80;;
13218;SDS011;6674;49.152;11.918;2023-12-20T07:36:56;0.80;;;0.80;;
13218;SDS011;6674;49.152;11.918;2023-12-20T07:39:22;0.80;;;0.80;;
13218;SDS011;6674;49.152;11.918;2023-12-20T07:41:48;1.27;;;0.70;;
13218;SDS011;6674;49.152;11.918;2023-12-20T07:44:15;0.80;;;0.80;;
13218;SDS011;6674;49.152;11.918;2023-12-20T07:46:41;1.53;;;1.30;;
13218;SDS011;6674;49.152;11.918;2023-12-20T07:49:09;0.90;;;0.90;;
13218;SDS011;6674;49.152;11.918;2023-12-20T07:51:36;1.20;;;1.20;;
13218;SDS011;6674;49.152;11.918;2023-12-20T07:54:02;2.03;;;1.80;;
13218;SDS011;6674;49.152;11.918;2023-12-20T07:56:29;1.93;;;1.83;;
13218;SDS011;6674;49.152;11.918;2023-12-20T07:58:56;1.80;;;1.70;;
13218;SDS011;6674;49.152;11.918;2023-12-20T08:01:22;2.00;;;1.90;;
13218;SDS011;6674;49.152;11.918;2023-12-20T08:03:49;2.00;;;1.90;;
13218;SDS011;6674;49.152;11.918;2023-12-20T08:06:16;1.83;;;1.73;;
13218;SDS011;6674;49.152;11.918;2023-12-20T08:08:43;1.90;;;1.50;;
13218;SDS011;6674;49.152;11.918;2023-12-20T08:11:11;1.60;;;1.50;;
13218;SDS011;6674;49.152;11.918;2023-12-20T08:13:37;2.10;;;1.87;;
13218;SDS011;6674;49.152;11.918;2023-12-20T08:16:04;1.77;;;1.67;;
13218;SDS011;6674;49.152;11.918;2023-12-20T08:18:31;1.67;;;1.57;;
13218;SDS011;6674;49.152;11.918;2023-12-20T08:20:57;1.53;;;1.43;;
13218;SDS011;6674;49.152;11.918;2023-12-20T08:23:25;2.07;;;1.87;;
13218;SDS011;6674;49.152;11.918;2023-12-20T08:25:51;2.37;;;2.17;;
13218;SDS011;6674;49.152;11.918;2023-12-20T08:28:17;3.27;;;2.97;;
13218;SDS011;6674;49.152;11.918;2023-12-20T08:30:50;3.10;;;2.80;;
13218;SDS011;6674;49.152;11.918;2023-12-20T08:33:18;2.70;;;2.50;;
13218;SDS011;6674;49.152;11.918;2023-12-20T08:35:45;3.00;;;2.80;;
13218;SDS011;6674;49.152;11.918;2023-12-20T08:38:11;3.20;;;2.90;;
13218;SDS011;6674;49.152;11.918;2023-12-20T08:40:40;2.47;;;2.27;;
13218;SDS011;6674;49.152;11.918;2023-12-20T08:43:07;2.97;;;2.73;;
13218;SDS011;6674;49.152;11.918;2023-12-20T08:45:35;2.80;;;2.60;;
13218;SDS011;6674;49.152;11.918;2023-12-20T08:48:01;2.63;;;2.43;;
13218;SDS011;6674;49.152;11.918;2023-12-20T08:50:28;2.83;;;2.50;;
13218;SDS011;6674;49.152;11.918;2023-12-20T08:52:54;2.60;;;2.40;;
13218;SDS011;6674;49.152;11.918;2023-12-20T08:55:21;2.80;;;2.60;;
13218;SDS011;6674;49.152;11.918;2023-12-20T08:57:49;2.27;;;2.17;;
13218;SDS011;6674;49.152;11.918;2023-12-20T09:00:17;2.30;;;2.20;;
13218;SDS011;6674;49.152;11.918;2023-12-20T09:02:45;2.60;;;2.40;;
13218;SDS011;6674;49.152;11.918;2023-12-20T09:05:13;3.37;;;2.70;;
13218;SDS011;6674;49.152;11.918;2023-12-20T09:07:45;3.17;;;2.93;;
13218;SDS011;6674;49.152;11.918;2023-12-20T09:10:12;2.80;;;2.60;;
13218;SDS011;6674;49.152;11.918;2023-12-20T09:12:38;4.97;;;3.40;;
13218;SDS011;6674;49.152;11.918;2023-12-20T09:15:07;4.67;;;4.27;;
13218;SDS011;6674;49.152;11.918;2023-12-20T09:17:34;4.20;;;3.90;;
13218;SDS011;6674;49.152;11.918;2023-12-20T09:20:00;3.80;;;3.50;;
13218;SDS011;6674;49.152;11.918;2023-12-20T09:22:27;4.67;;;4.20;;
13218;SDS011;6674;49.152;11.918;2023-12-20T09:24:53;3.77;;;3.47;;
13218;SDS011;6674;49.152;11.918;2023-12-20T09:27:20;4.77;;;4.37;;
13218;SDS011;6674;49.152;11.918;2023-12-20T09:29:48;3.87;;;3.53;;
13218;SDS011;6674;49.152;11.918;2023-12-20T09:32:16;4.33;;;3.93;;
13218;SDS011;6674;49.152;11.918;2023-12-20T09:34:42;4.63;;;4.23;;
13218;SDS011;6674;49.152;11.918;2023-12-20T09:37:08;4.57;;;4.17;;
13218;SDS011;6674;49.152;11.918;2023-12-20T09:39:35;4.53;;;4.20;;
13218;SDS011;6674;49.152;11.918;2023-12-20T09:42:02;5.20;;;4.70;;
13218;SDS011;6674;49.152;11.918;2023-12-20T09:44:29;4.37;;;4.00;;
13218;SDS011;6674;49.152;11.918;2023-12-20T09:46:56;3.90;;;3.60;;
13218;SDS011;6674;49.152;11.918;2023-12-20T09:49:25;4.23;;;3.93;;
13218;SDS011;6674;49.152;11.918;2023-12-20T09:51:53;4.53;;;4.13;;
13218;SDS011;6674;49.152;11.918;2023-12-20T09:54:20;4.00;;;3.70;;
13218;SDS011;6674;49.152;11.918;2023-12-20T09:56:47;3.50;;;3.30;;
13218;SDS011;6674;49.152;11.918;2023-12-20T09:59:14;4.70;;;4.30;;
13218;SDS011;6674;49.152;11.918;2023-12-20T10:01:47;3.77;;;3.43;;
13218;SDS011;6674;49.152;11.918;2023-12-20T10:04:15;3.57;;;3.30;;
13218;SDS011;6674;49.152;11.918;2023-12-20T10:06:43;3.40;;;3.10;;
13218;SDS011;6674;49.152;11.918;2023-12-20T10:09:11;3.53;;;3.23;;
13218;SDS011;6674;49.152;11.918;2023-12-20T10:11:38;3.10;;;2.90;;
13218;SDS011;6674;49.152;11.918;2023-12-20T10:14:05;3.60;;;3.30;;
13218;SDS011;6674;49.152;11.918;2023-12-20T10:16:31;4.10;;;3.80;;
13218;SDS011;6674;49.152;11.918;2023-12-20T10:19:00;3.90;;;3.60;;
13218;SDS011;6674;49.152;11.918;2023-12-20T10:21:27;3.20;;;3.00;;
13218;SDS011;6674;49.152;11.918;2023-12-20T10:23:55;2.90;;;2.70;;
13218;SDS011;6674;49.152;11.918;2023-12-20T10:26:22;2.70;;;2.50;;
13218;SDS011;6674;49.152;11.918;2023-12-20T10:28:50;2.73;;;2.50;;
13218;SDS011;6674;49.152;11.918;2023-12-20T10:31:26;2.90;;;2.70;;
13218;SDS011;6674;49.152;11.918;2023-12-20T10:33:53;2.17;;;2.07;;
13218;SDS011;6674;49.152;11.918;2023-12-20T10:36:20;2.87;;;2.63;;
13218;SDS011;6674;49.152;11.918;2023-12-20T10:38:46;2.90;;;2.63;;
13218;SDS011;6674;49.152;11.918;2023-12-20T10:41:15;2.67;;;2.47;;
13218;SDS011;6674;49.152;11.918;2023-12-20T10:43:44;2.60;;;2.40;;
13218;SDS011;6674;49.152;11.918;2023-12-20T10:46:11;2.70;;;2.50;;
13218;SDS011;6674;49.152;11.918;2023-12-20T10:48:43;2.10;;;2.00;;
13218;SDS011;6674;49.152;11.918;2023-12-20T10:51:13;4.30;;;2.80;;
13218;SDS011;6674;49.152;11.918;2023-12-20T10:53:40;2.87;;;2.30;;
13218;SDS011;6674;49.152;11.918;2023-12-20T10:56:06;2.70;;;2.50;;
13218;SDS011;6674;49.152;11.918;2023-12-20T10:58:35;2.83;;;2.60;;
13218;SDS011;6674;49.152;11.918;2023-12-20T11:01:03;2.50;;;2.30;;
13218;SDS011;6674;49.152;11.918;2023-12-20T11:03:31;3.23;;;2.67;;
13218;SDS011;6674;49.152;11.918;2023-12-20T11:05:59;3.07;;;2.80;;
13218;SDS011;6674;49.152;11.918;2023-12-20T11:08:31;4.40;;;3.00;;
13218;SDS011;6674;49.152;11.918;2023-12-20T11:11:02;3.40;;;3.10;;
13218;SDS011;6674;49.152;11.918;2023-12-20T11:13:32;3.00;;;2.70;;
13218;SDS011;6674;49.152;11.918;2023-12-20T11:16:02;3.93;;;2.83;;
13218;SDS011;6674;49.152;11.918;2023-12-20T11:18:29;3.77;;;2.83;;
13218;SDS011;6674;49.152;11.918;2023-12-20T11:20:55;2.57;;;2.30;;
13218;SDS011;6674;49.152;11.918;2023-12-20T11:23:27;3.17;;;2.30;;
13218;SDS011;6674;49.152;11.918;2023-12-20T11:25:56;2.50;;;2.30;;
13218;SDS011;6674;49.152;11.918;2023-12-20T11:28:29;2.70;;;2.30;;
13218;SDS011;6674;49.152;11.918;2023-12-20T11:30:58;2.47;;;2.10;;
13218;SDS011;6674;49.152;11.918;2023-12-20T11:33:27;5.23;;;2.27;;
13218;SDS011;6674;49.152;11.918;2023-12-20T11:35:56;4.30;;;2.30;;
13218;SDS011;6674;49.152;11.918;2023-12-20T11:38:23;4.40;;;2.00;;
13218;SDS011;6674;49.152;11.918;2023-12-20T11:40:50;2.80;;;2.07;;
13218;SDS011;6674;49.152;11.918;2023-12-20T11:43:29;3.73;;;2.10;;
13218;SDS011;6674;49.152;11.918;2023-12-20T11:45:55;3.93;;;2.10;;
13218;SDS011;6674;49.152;11.918;2023-12-20T11:48:29;4.00;;;2.17;;
13218;SDS011;6674;49.152;11.918;2023-12-20T11:50:58;3.93;;;1.93;;
13218;SDS011;6674;49.152;11.918;2023-12-20T11:53:24;3.67;;;2.00;;
13218;SDS011;6674;49.152;11.918;2023-12-20T11:55:51;6.63;;;2.17;;
13218;SDS011;6674;49.152;11.918;2023-12-20T11:58:18;2.00;;;1.77;;
13218;SDS011;6674;49.152;11.918;2023-12-20T12:00:44;2.40;;;1.87;;
13218;SDS011;6674;49.152;11.918;2023-12-20T12:03:14;2.70;;;2.00;;
13218;SDS011;6674;49.152;11.918;2023-12-20T12:05:42;4.27;;;2.10;;
13218;SDS011;6674;49.152;11.918;2023-12-20T12:08:08;4.47;;;1.90;;
13218;SDS011;6674;49.152;11.918;2023-12-20T12:10:35;5.53;;;2.10;;
13218;SDS011;6674;49.152;11.918;2023-12-20T12:13:01;3.67;;;2.07;;
13218;SDS011;6674;49.152;11.918;2023-12-20T12:15:27;2.47;;;1.83;;
13218;SDS011;6674;49.152;11.918;2023-12-20T12:17:55;2.37;;;2.00;;
13218;SDS011;6674;49.152;11.918;2023-12-20T12:20:24;3.53;;;1.93;;
13218;SDS011;6674;49.152;11.918;2023-12-20T12:22:58;4.33;;;2.40;;
13218;SDS011;6674;49.152;11.918;2023-12-20T12:25:25;4.50;;;2.03;;
13218;SDS011;6674;49.152;11.918;2023-12-20T12:27:52;4.60;;;2.50;;
13218;SDS011;6674;49.152;11.918;2023-12-20T12:30:18;3.90;;;1.93;;
13218;SDS011;6674;49.152;11.918;2023-12-20T12:32:45;4.00;;;2.00;;
13218;SDS011;6674;49.152;11.918;2023-12-20T12:35:11;2.47;;;1.87;;
13218;SDS011;6674;49.152;11.918;2023-12-20T12:37:38;3.67;;;2.10;;
13218;SDS011;6674;49.152;11.918;2023-12-20T12:40:09;2.77;;;1.70;;
13218;SDS011;6674;49.152;11.918;2023-12-20T12:42:35;4.07;;;2.13;;
13218;SDS011;6674;49.152;11.918;2023-12-20T12:45:03;2.50;;;1.80;;
13218;SDS011;6674;49.152;11.918;2023-12-20T12:47:30;2.40;;;1.80;;
13218;SDS011;6674;49.152;11.918;2023-12-20T12:49:56;3.83;;;2.20;;
13218;SDS011;6674;49.152;11.918;2023-12-20T12:52:23;2.77;;;1.73;;
13218;SDS011;6674;49.152;11.918;2023-12-20T12:54:49;3.93;;;1.90;;
13218;SDS011;6674;49.152;11.918;2023-12-20T12:57:18;3.50;;;1.97;;
13218;SDS011;6674;49.152;11.918;2023-12-20T12:59:45;4.97;;;2.03;;
13218;SDS011;6674;49.152;11.918;2023-12-20T13:02:13;6.47;;;2.20;;
13218;SDS011;6674;49.152;11.918;2023-12-20T13:04:40;3.40;;;2.03;;
13218;SDS011;6674;49.152;11.918;2023-12-20T13:07:08;2.60;;;1.83;;
13218;SDS011;6674;49.152;11.918;2023-12-20T13:09:35;2.97;;;2.17;;
13218;SDS011;6674;49.152;11.918;2023-12-20T13:12:02;3.27;;;1.80;;
13218;SDS011;6674;49.152;11.918;2023-12-20T13:14:31;3.73;;;1.90;;
13218;SDS011;6674;49.152;11.918;2023-12-20T13:16:58;1.90;;;1.60;;
13218;SDS011;6674;49.152;11.918;2023-12-20T13:19:26;2.70;;;1.77;;
13218;SDS011;6674;49.152;11.918;2023-12-20T13:21:52;4.53;;;2.13;;
13218;SDS011;6674;49.152;11.918;2023-12-20T13:24:20;3.23;;;1.87;;
13218;SDS011;6674;49.152;11.918;2023-12-20T13:26:49;2.10;;;1.70;;
13218;SDS011;6674;49.152;11.918;2023-12-20T13:29:15;3.83;;;1.97;;
13218;SDS011;6674;49.152;11.918;2023-12-20T13:31:44;4.77;;;2.43;;
13218;SDS011;6674;49.152;11.918;2023-12-20T13:34:11;3.70;;;2.03;;
13218;SDS011;6674;49.152;11.918;2023-12-20T13:36:37;2.33;;;1.70;;
13218;SDS011;6674;49.152;11.918;2023-12-20T13:39:05;2.90;;;1.83;;
13218;SDS011;6674;49.152;11.918;2023-12-20T13:41:34;2.83;;;1.80;;
13218;SDS011;6674;49.152;11.918;2023-12-20T13:44:03;2.93;;;1.67;;
13218;SDS011;6674;49.152;11.918;2023-12-20T13:46:30;3.37;;;1.87;;
13218;SDS011;6674;49.152;11.918;2023-12-20T13:48:58;2.80;;;1.73;;
13218;SDS011;6674;49.152;11.918;2023-12-20T13:51:24;2.73;;;2.13;;
13218;SDS011;6674;49.152;11.918;2023-12-20T13:53:52;3.17;;;1.90;;
13218;SDS011;6674;49.152;11.918;2023-12-20T13:56:18;5.10;;;2.20;;
13218;SDS011;6674;49.152;11.918;2023-12-20T13:58:45;3.33;;;1.80;;
13218;SDS011;6674;49.152;11.918;2023-12-20T14:01:12;3.03;;;1.77;;
13218;SDS011;6674;49.152;11.918;2023-12-20T14:03:38;4.40;;;2.03;;
13218;SDS011;6674;49.152;11.918;2023-12-20T14:06:07;3.90;;;2.13;;
13218;SDS011;6674;49.152;11.918;2023-12-20T14:08:35;2.93;;;1.93;;
13218;SDS011;6674;49.152;11.918;2023-12-20T14:11:02;3.53;;;1.90;;
13218;SDS011;6674;49.152;11.918;2023-12-20T14:13:29;2.23;;;1.77;;
13218;SDS011;6674;49.152;11.918;2023-12-20T14:15:56;2.93;;;1.90;;
13218;SDS011;6674;49.152;11.918;2023-12-20T14:18:23;4.27;;;2.20;;
13218;SDS011;6674;49.152;11.918;2023-12-20T14:20:50;3.67;;;1.93;;
13218;SDS011;6674;49.152;11.918;2023-12-20T14:23:18;3.23;;;1.90;;
13218;SDS011;6674;49.152;11.918;2023-12-20T14:25:44;3.20;;;1.70;;
13218;SDS011;6674;49.152;11.918;2023-12-20T14:28:11;3.23;;;1.93;;
13218;SDS011;6674;49.152;11.918;2023-12-20T14:30:39;2.07;;;1.87;;
13218;SDS011;6674;49.152;11.918;2023-12-20T14:33:05;3.67;;;1.93;;
13218;SDS011;6674;49.152;11.918;2023-12-20T14:35:32;3.53;;;1.90;;
13218;SDS011;6674;49.152;11.918;2023-12-20T14:37:58;3.37;;;2.13;;
13218;SDS011;6674;49.152;11.918;2023-12-20T14:40:27;2.33;;;1.67;;
13218;SDS011;6674;49.152;11.918;2023-12-20T14:42:53;3.47;;;2.13;;
13218;SDS011;6674;49.152;11.918;2023-12-20T14:45:20;3.00;;;1.70;;